sensor_id;sensor_type;location;lat;lon;timestamp;pressure;altitude;pressure_sealevel;temperature;humidity
38614;BME280;24369;49.480;8.488;2022-08-21T00:00:24;100581.81;;;32.37;23.03
38614;BME280;24369;49.480;8.488;2022-08-21T00:05:27;100580.91;;;32.21;23.38
38614;BME280;24369;49.480;8.488;2022-08-21T00:07:53;100357.91;;;30.76;23.41
38614;BME280;24369;49.480;8.488;2022-08-21T00:10:19;100337.56;;;30.51;23.46
38614;BME280;24369;49.480;8.488;2022-08-21T00:12:45;100527.88;;;31.60;23.61
38614;BME280;24369;49.480;8.488;2022-08-21T00:15:16;100583.34;;;31.86;23.92
38614;BME280;24369;49.480;8.488;2022-08-21T00:17:43;100592.31;;;31.81;24.11
38614;BME280;24369;49.480;8.488;2022-08-21T00:20:10;100587.97;;;31.85;24.26
38614;BME280;24369;49.480;8.488;2022-08-21T00:22:36;100580.41;;;31.87;24.12
38614;BME280;24369;49.480;8.488;2022-08-21T00:25:04;100538.22;;;31.57;23.98
38614;BME280;24369;49.480;8.488;2022-08-21T00:27:29;100399.66;;;30.92;23.86
38614;BME280;24369;49.480;8.488;2022-08-21T00:30:38;100522.38;;;31.54;24.05
38614;BME280;24369;49.480;8.488;2022-08-21T00:33:05;100398.88;;;30.96;24.00
38614;BME280;24369;49.480;8.488;2022-08-21T00:35:35;100484.25;;;31.54;24.13
38614;BME280;24369;49.480;8.488;2022-08-21T00:38:02;100574.88;;;31.82;23.93
38614;BME280;24369;49.480;8.488;2022-08-21T00:40:35;100578.06;;;32.06;23.78
38614;BME280;24369;49.480;8.488;2022-08-21T00:43:04;100475.88;;;31.29;23.61
38614;BME280;24369;49.480;8.488;2022-08-21T00:45:30;100419.00;;;30.95;23.65
38614;BME280;24369;49.480;8.488;2022-08-21T00:47:57;100578.59;;;32.03;23.64
38614;BME280;24369;49.480;8.488;2022-08-21T00:50:27;100616.53;;;32.10;23.67
38614;BME280;24369;49.480;8.488;2022-08-21T00:52:54;100585.41;;;32.00;23.74
38614;BME280;24369;49.480;8.488;2022-08-21T00:57:44;100512.59;;;31.58;23.87
38614;BME280;24369;49.480;8.488;2022-08-21T01:00:14;100573.19;;;31.76;24.22
38614;BME280;24369;49.480;8.488;2022-08-21T01:02:41;100410.63;;;30.75;23.94
38614;BME280;24369;49.480;8.488;2022-08-21T01:05:07;100501.34;;;31.18;24.08
38614;BME280;24369;49.480;8.488;2022-08-21T01:07:32;100573.13;;;31.66;24.24
38614;BME280;24369;49.480;8.488;2022-08-21T01:09:58;100461.50;;;31.01;23.80
38614;BME280;24369;49.480;8.488;2022-08-21T01:12:24;100444.03;;;30.70;23.92
38614;BME280;24369;49.480;8.488;2022-08-21T01:14:49;100333.53;;;30.27;23.84
38614;BME280;24369;49.480;8.488;2022-08-21T01:17:15;100575.28;;;31.64;23.82
38614;BME280;24369;49.480;8.488;2022-08-21T01:19:41;100542.78;;;30.98;23.89
38614;BME280;24369;49.480;8.488;2022-08-21T01:23:49;100576.13;;;31.32;24.11
38614;BME280;24369;49.480;8.488;2022-08-21T01:26:17;100540.38;;;31.28;24.06
38614;BME280;24369;49.480;8.488;2022-08-21T01:28:48;100572.53;;;31.31;24.51
38614;BME280;24369;49.480;8.488;2022-08-21T01:31:16;100307.38;;;29.33;25.00
38614;BME280;24369;49.480;8.488;2022-08-21T01:33:44;100497.28;;;30.88;24.75
38614;BME280;24369;49.480;8.488;2022-08-21T01:36:09;100473.41;;;30.68;24.60
38614;BME280;24369;49.480;8.488;2022-08-21T01:38:34;100478.19;;;30.83;24.49
38614;BME280;24369;49.480;8.488;2022-08-21T01:41:00;100451.47;;;30.53;24.32
38614;BME280;24369;49.480;8.488;2022-08-21T01:43:25;100524.22;;;31.17;24.33
38614;BME280;24369;49.480;8.488;2022-08-21T01:48:28;100355.72;;;29.36;24.96
38614;BME280;24369;49.480;8.488;2022-08-21T01:50:53;100576.63;;;31.07;25.03
38614;BME280;24369;49.480;8.488;2022-08-21T01:53:19;100415.19;;;29.98;25.45
38614;BME280;24369;49.480;8.488;2022-08-21T01:55:45;100453.63;;;30.51;24.87
38614;BME280;24369;49.480;8.488;2022-08-21T01:58:10;100547.63;;;30.91;24.88
38614;BME280;24369;49.480;8.488;2022-08-21T02:00:36;100264.94;;;29.27;24.98
38614;BME280;24369;49.480;8.488;2022-08-21T02:03:02;100570.66;;;31.05;24.86
38614;BME280;24369;49.480;8.488;2022-08-21T02:05:27;100567.50;;;31.18;24.64
38614;BME280;24369;49.480;8.488;2022-08-21T02:07:53;100548.91;;;30.83;25.08
38614;BME280;24369;49.480;8.488;2022-08-21T02:10:27;100568.84;;;31.16;24.94
38614;BME280;24369;49.480;8.488;2022-08-21T02:14:40;100525.28;;;30.67;25.18
38614;BME280;24369;49.480;8.488;2022-08-21T02:17:05;100283.06;;;29.04;25.49
38614;BME280;24369;49.480;8.488;2022-08-21T02:19:31;100580.75;;;31.09;25.20
38614;BME280;24369;49.480;8.488;2022-08-21T02:21:56;100577.47;;;31.07;25.53
38614;BME280;24369;49.480;8.488;2022-08-21T02:24:21;100454.53;;;30.34;25.46
38614;BME280;24369;49.480;8.488;2022-08-21T02:26:47;100498.09;;;30.67;25.30
38614;BME280;24369;49.480;8.488;2022-08-21T02:29:12;100469.75;;;30.13;25.43
38614;BME280;24369;49.480;8.488;2022-08-21T02:31:38;100489.31;;;30.59;25.07
38614;BME280;24369;49.480;8.488;2022-08-21T02:34:03;100358.41;;;29.75;25.33
38614;BME280;24369;49.480;8.488;2022-08-21T02:39:23;100500.19;;;30.15;25.98
38614;BME280;24369;49.480;8.488;2022-08-21T02:41:49;100245.81;;;28.44;26.43
38614;BME280;24369;49.480;8.488;2022-08-21T02:44:14;100336.09;;;28.95;26.59
38614;BME280;24369;49.480;8.488;2022-08-21T02:46:39;100586.25;;;30.27;26.67
38614;BME280;24369;49.480;8.488;2022-08-21T02:49:05;100560.13;;;30.26;26.46
38614;BME280;24369;49.480;8.488;2022-08-21T02:51:30;100502.94;;;29.99;26.02
38614;BME280;24369;49.480;8.488;2022-08-21T02:53:56;100455.47;;;29.62;26.12
38614;BME280;24369;49.480;8.488;2022-08-21T02:56:21;100379.41;;;29.23;25.98
38614;BME280;24369;49.480;8.488;2022-08-21T02:58:50;100347.31;;;28.87;26.01
38614;BME280;24369;49.480;8.488;2022-08-21T03:03:38;100489.25;;;29.72;26.17
38614;BME280;24369;49.480;8.488;2022-08-21T03:06:06;100491.28;;;29.81;25.89
38614;BME280;24369;49.480;8.488;2022-08-21T03:08:33;100496.97;;;29.97;25.96
38614;BME280;24369;49.480;8.488;2022-08-21T03:10:59;100427.06;;;29.53;25.77
38614;BME280;24369;49.480;8.488;2022-08-21T03:13:26;100528.34;;;30.09;25.73
38614;BME280;24369;49.480;8.488;2022-08-21T03:15:53;100388.63;;;29.22;25.58
38614;BME280;24369;49.480;8.488;2022-08-21T03:18:19;100445.16;;;29.64;25.68
38614;BME280;24369;49.480;8.488;2022-08-21T03:20:45;100540.59;;;30.29;25.45
38614;BME280;24369;49.480;8.488;2022-08-21T03:23:11;100427.00;;;29.14;26.06
38614;BME280;24369;49.480;8.488;2022-08-21T03:27:28;100480.53;;;29.69;25.79
38614;BME280;24369;49.480;8.488;2022-08-21T03:29:56;100123.66;;;27.09;26.00
38614;BME280;24369;49.480;8.488;2022-08-21T03:32:22;100471.31;;;29.37;26.30
38614;BME280;24369;49.480;8.488;2022-08-21T03:34:47;100496.66;;;29.42;26.38
38614;BME280;24369;49.480;8.488;2022-08-21T03:37:15;100540.69;;;29.61;26.32
38614;BME280;24369;49.480;8.488;2022-08-21T03:39:42;100432.63;;;28.96;26.88
38614;BME280;24369;49.480;8.488;2022-08-21T03:42:08;100452.59;;;28.90;26.76
38614;BME280;24369;49.480;8.488;2022-08-21T03:44:34;100559.94;;;29.60;26.89
38614;BME280;24369;49.480;8.488;2022-08-21T03:47:00;100553.75;;;29.81;26.43
38614;BME280;24369;49.480;8.488;2022-08-21T03:51:28;100454.56;;;28.49;27.66
38614;BME280;24369;49.480;8.488;2022-08-21T03:53:54;100563.16;;;29.74;26.28
38614;BME280;24369;49.480;8.488;2022-08-21T03:56:20;100334.16;;;28.45;26.18
38614;BME280;24369;49.480;8.488;2022-08-21T03:58:45;100506.19;;;29.62;26.41
38614;BME280;24369;49.480;8.488;2022-08-21T04:01:10;100463.25;;;29.08;25.97
38614;BME280;24369;49.480;8.488;2022-08-21T04:03:37;100512.84;;;29.54;26.25
38614;BME280;24369;49.480;8.488;2022-08-21T04:06:03;100530.91;;;29.60;26.00
38614;BME280;24369;49.480;8.488;2022-08-21T04:08:28;100401.53;;;28.70;25.71
38614;BME280;24369;49.480;8.488;2022-08-21T04:10:56;100571.03;;;29.92;25.49
38614;BME280;24369;49.480;8.488;2022-08-21T04:15:10;100445.47;;;29.00;25.91
38614;BME280;24369;49.480;8.488;2022-08-21T04:17:35;100573.69;;;29.87;26.04
38614;BME280;24369;49.480;8.488;2022-08-21T04:20:01;100504.22;;;29.40;25.92
38614;BME280;24369;49.480;8.488;2022-08-21T04:22:26;100585.84;;;29.84;25.74
38614;BME280;24369;49.480;8.488;2022-08-21T04:24:52;100543.84;;;29.58;25.65
38614;BME280;24369;49.480;8.488;2022-08-21T04:27:17;100443.00;;;28.99;25.68
38614;BME280;24369;49.480;8.488;2022-08-21T04:29:42;100526.25;;;29.44;26.04
38614;BME280;24369;49.480;8.488;2022-08-21T04:32:08;100476.50;;;28.93;26.21
38614;BME280;24369;49.480;8.488;2022-08-21T04:34:33;100592.34;;;29.66;26.59
38614;BME280;24369;49.480;8.488;2022-08-21T04:36:58;100473.09;;;28.97;26.19
38614;BME280;24369;49.480;8.488;2022-08-21T04:40:22;100316.31;;;28.03;26.28
38614;BME280;24369;49.480;8.488;2022-08-21T04:42:57;100593.50;;;29.70;26.23
38614;BME280;24369;49.480;8.488;2022-08-21T04:45:29;100492.75;;;28.76;26.54
38614;BME280;24369;49.480;8.488;2022-08-21T04:47:57;100375.75;;;28.10;26.45
38614;BME280;24369;49.480;8.488;2022-08-21T04:53:16;100526.56;;;29.31;26.52
38614;BME280;24369;49.480;8.488;2022-08-21T04:55:42;100476.25;;;28.77;26.19
38614;BME280;24369;49.480;8.488;2022-08-21T04:58:10;100544.09;;;29.40;26.04
38614;BME280;24369;49.480;8.488;2022-08-21T05:00:37;100537.44;;;29.31;26.40
38614;BME280;24369;49.480;8.488;2022-08-21T05:04:01;100270.63;;;27.67;26.04
38614;BME280;24369;49.480;8.488;2022-08-21T05:06:30;100604.63;;;29.69;26.45
38614;BME280;24369;49.480;8.488;2022-08-21T05:08:57;100499.94;;;28.99;26.52
38614;BME280;24369;49.480;8.488;2022-08-21T05:11:23;100447.22;;;28.61;26.37
38614;BME280;24369;49.480;8.488;2022-08-21T05:13:49;100492.94;;;29.15;26.46
38614;BME280;24369;49.480;8.488;2022-08-21T05:16:15;100617.28;;;29.80;26.62
38614;BME280;24369;49.480;8.488;2022-08-21T05:18:41;100352.31;;;28.33;26.40
38614;BME280;24369;49.480;8.488;2022-08-21T05:21:07;100605.59;;;29.97;26.37
38614;BME280;24369;49.480;8.488;2022-08-21T05:23:32;100516.03;;;29.34;26.49
38614;BME280;24369;49.480;8.488;2022-08-21T05:27:10;100632.13;;;29.15;27.77
38614;BME280;24369;49.480;8.488;2022-08-21T05:29:35;100618.44;;;30.01;26.73
38614;BME280;24369;49.480;8.488;2022-08-21T05:32:08;100400.38;;;28.66;26.55
38614;BME280;24369;49.480;8.488;2022-08-21T05:34:33;100105.38;;;26.87;26.66
38614;BME280;24369;49.480;8.488;2022-08-21T05:36:58;100435.59;;;28.77;26.77
38614;BME280;24369;49.480;8.488;2022-08-21T05:39:24;100534.97;;;29.29;26.79
38614;BME280;24369;49.480;8.488;2022-08-21T05:41:49;100257.38;;;27.94;26.29
38614;BME280;24369;49.480;8.488;2022-08-21T05:44:14;100531.94;;;29.42;26.28
38614;BME280;24369;49.480;8.488;2022-08-21T05:49:19;100488.25;;;29.27;26.11
38614;BME280;24369;49.480;8.488;2022-08-21T05:51:44;100623.72;;;30.25;26.35
38614;BME280;24369;49.480;8.488;2022-08-21T05:54:09;100569.72;;;29.78;26.08
38614;BME280;24369;49.480;8.488;2022-08-21T05:56:36;100461.97;;;28.99;26.35
38614;BME280;24369;49.480;8.488;2022-08-21T05:59:01;100571.19;;;29.68;26.74
38614;BME280;24369;49.480;8.488;2022-08-21T06:01:27;100620.69;;;30.21;26.29
38614;BME280;24369;49.480;8.488;2022-08-21T06:03:52;100639.34;;;30.17;26.38
38614;BME280;24369;49.480;8.488;2022-08-21T06:06:18;100530.53;;;29.40;25.83
38614;BME280;24369;49.480;8.488;2022-08-21T06:08:43;100345.34;;;28.48;26.08
38614;BME280;24369;49.480;8.488;2022-08-21T06:14:45;100460.44;;;29.03;26.10
38614;BME280;24369;49.480;8.488;2022-08-21T06:17:12;100487.09;;;29.06;25.81
38614;BME280;24369;49.480;8.488;2022-08-21T06:19:37;100465.25;;;29.30;25.29
38614;BME280;24369;49.480;8.488;2022-08-21T06:22:04;100621.78;;;30.42;25.31
38614;BME280;24369;49.480;8.488;2022-08-21T06:24:30;100630.09;;;30.52;25.22
38614;BME280;24369;49.480;8.488;2022-08-21T06:26:56;100617.69;;;30.61;24.91
38614;BME280;24369;49.480;8.488;2022-08-21T06:29:22;100631.44;;;30.72;24.83
38614;BME280;24369;49.480;8.488;2022-08-21T06:31:49;100621.03;;;30.47;24.81
38614;BME280;24369;49.480;8.488;2022-08-21T06:34:15;100526.06;;;30.01;24.85
38614;BME280;24369;49.480;8.488;2022-08-21T06:36:41;100546.88;;;30.12;24.71
38614;BME280;24369;49.480;8.488;2022-08-21T06:41:13;100634.13;;;30.89;24.32
38614;BME280;24369;49.480;8.488;2022-08-21T06:43:39;100578.94;;;30.71;24.10
38614;BME280;24369;49.480;8.488;2022-08-21T06:46:04;100543.81;;;30.70;23.66
38614;BME280;24369;49.480;8.488;2022-08-21T06:48:29;100624.94;;;31.71;23.42
38614;BME280;24369;49.480;8.488;2022-08-21T06:50:59;100486.44;;;32.47;21.96
38614;BME280;24369;49.480;8.488;2022-08-21T06:53:25;100543.31;;;34.24;19.88
38614;BME280;24369;49.480;8.488;2022-08-21T06:55:50;100575.81;;;34.36;19.54
38614;BME280;24369;49.480;8.488;2022-08-21T06:58:16;100626.44;;;34.18;20.02
38614;BME280;24369;49.480;8.488;2022-08-21T07:00:44;100437.38;;;32.63;20.53
38614;BME280;24369;49.480;8.488;2022-08-21T07:05:57;100577.41;;;32.94;21.17
38614;BME280;24369;49.480;8.488;2022-08-21T07:08:24;100577.50;;;32.46;21.20
38614;BME280;24369;49.480;8.488;2022-08-21T07:10:50;100352.22;;;31.15;21.19
38614;BME280;24369;49.480;8.488;2022-08-21T07:13:17;100573.81;;;32.73;21.08
38614;BME280;24369;49.480;8.488;2022-08-21T07:15:42;100477.50;;;32.04;21.41
38614;BME280;24369;49.480;8.488;2022-08-21T07:18:08;100542.72;;;34.32;19.94
38614;BME280;24369;49.480;8.488;2022-08-21T07:20:34;100513.59;;;35.12;19.14
38614;BME280;24369;49.480;8.488;2022-08-21T07:23:02;100614.22;;;36.33;17.67
38614;BME280;24369;49.480;8.488;2022-08-21T07:25:28;100680.88;;;36.04;18.11
38614;BME280;24369;49.480;8.488;2022-08-21T07:30:26;100614.66;;;35.08;19.08
38614;BME280;24369;49.480;8.488;2022-08-21T07:32:52;100595.28;;;34.94;19.12
38614;BME280;24369;49.480;8.488;2022-08-21T07:35:19;100556.91;;;34.55;18.73
38614;BME280;24369;49.480;8.488;2022-08-21T07:37:45;100547.03;;;35.43;18.76
38614;BME280;24369;49.480;8.488;2022-08-21T07:40:11;100384.50;;;36.19;17.46
38614;BME280;24369;49.480;8.488;2022-08-21T07:42:43;100615.13;;;38.31;16.07
38614;BME280;24369;49.480;8.488;2022-08-21T07:45:10;100610.31;;;37.25;16.78
38614;BME280;24369;49.480;8.488;2022-08-21T07:47:36;100503.13;;;35.82;17.61
38614;BME280;24369;49.480;8.488;2022-08-21T07:51:25;100621.16;;;35.67;18.07
38614;BME280;24369;49.480;8.488;2022-08-21T07:53:54;100553.59;;;35.07;18.74
38614;BME280;24369;49.480;8.488;2022-08-21T07:56:20;100486.03;;;34.53;18.66
38614;BME280;24369;49.480;8.488;2022-08-21T07:58:46;100547.66;;;34.90;18.82
38614;BME280;24369;49.480;8.488;2022-08-21T08:01:12;100617.38;;;35.13;19.09
38614;BME280;24369;49.480;8.488;2022-08-21T08:03:38;100492.25;;;33.94;19.31
38614;BME280;24369;49.480;8.488;2022-08-21T08:06:04;100533.44;;;34.28;19.62
38614;BME280;24369;49.480;8.488;2022-08-21T08:08:30;100318.81;;;33.71;18.59
38614;BME280;24369;49.480;8.488;2022-08-21T08:12:19;100581.00;;;35.07;18.47
38614;BME280;24369;49.480;8.488;2022-08-21T08:14:45;100380.63;;;33.41;19.26
38614;BME280;24369;49.480;8.488;2022-08-21T08:17:11;100546.56;;;34.31;19.56
38614;BME280;24369;49.480;8.488;2022-08-21T08:19:38;100404.94;;;33.33;19.73
38614;BME280;24369;49.480;8.488;2022-08-21T08:22:12;100369.19;;;33.24;19.42
38614;BME280;24369;49.480;8.488;2022-08-21T08:24:38;100359.66;;;32.81;19.79
38614;BME280;24369;49.480;8.488;2022-08-21T08:27:04;100510.53;;;34.14;19.68
38614;BME280;24369;49.480;8.488;2022-08-21T08:29:29;100568.19;;;34.23;20.09
38614;BME280;24369;49.480;8.488;2022-08-21T08:31:56;100526.31;;;34.32;19.67
38614;BME280;24369;49.480;8.488;2022-08-21T08:36:01;100595.44;;;35.18;19.25
38614;BME280;24369;49.480;8.488;2022-08-21T08:38:26;100359.09;;;34.49;18.58
38614;BME280;24369;49.480;8.488;2022-08-21T08:41:00;100444.06;;;34.73;19.21
38614;BME280;24369;49.480;8.488;2022-08-21T08:43:29;100544.19;;;35.58;18.67
38614;BME280;24369;49.480;8.488;2022-08-21T08:45:57;100571.25;;;35.94;18.59
38614;BME280;24369;49.480;8.488;2022-08-21T08:51:18;100503.31;;;37.80;16.80
38614;BME280;24369;49.480;8.488;2022-08-21T08:54:04;100567.38;;;42.20;14.43
38614;BME280;24369;49.480;8.488;2022-08-21T08:59:18;100455.25;;;46.63;10.04
38614;BME280;24369;49.480;8.488;2022-08-21T09:01:46;100362.13;;;45.07;10.00
38614;BME280;24369;49.480;8.488;2022-08-21T09:04:13;100564.81;;;47.68;9.45
38614;BME280;24369;49.480;8.488;2022-08-21T09:20:27;100419.88;;;42.95;11.49
38614;BME280;24369;49.480;8.488;2022-08-21T09:25:33;100447.81;;;40.86;13.25
38614;BME280;24369;49.480;8.488;2022-08-21T09:28:01;100377.03;;;39.55;13.80
38614;BME280;24369;49.480;8.488;2022-08-21T09:30:30;100535.41;;;39.71;14.51
38614;BME280;24369;49.480;8.488;2022-08-21T09:32:56;100456.13;;;38.28;15.15
38614;BME280;24369;49.480;8.488;2022-08-21T09:35:22;100535.25;;;38.08;15.88
38614;BME280;24369;49.480;8.488;2022-08-21T09:37:51;100529.91;;;37.71;16.27
38614;BME280;24369;49.480;8.488;2022-08-21T09:43:07;100535.19;;;37.15;16.82
38614;BME280;24369;49.480;8.488;2022-08-21T09:45:43;100430.44;;;36.52;16.87
38614;BME280;24369;49.480;8.488;2022-08-21T09:49:52;100377.56;;;36.79;16.49
38614;BME280;24369;49.480;8.488;2022-08-21T09:52:20;100327.50;;;37.47;15.73
38614;BME280;24369;49.480;8.488;2022-08-21T09:54:51;100437.50;;;37.83;15.09
38614;BME280;24369;49.480;8.488;2022-08-21T09:57:23;100380.38;;;37.39;15.40
38614;BME280;24369;49.480;8.488;2022-08-21T10:00:25;100535.03;;;38.19;15.17
38614;BME280;24369;49.480;8.488;2022-08-21T10:02:51;100516.53;;;37.64;15.03
38614;BME280;24369;49.480;8.488;2022-08-21T10:05:23;100531.03;;;37.97;15.28
38614;BME280;24369;49.480;8.488;2022-08-21T10:07:49;100532.88;;;37.88;15.29
38614;BME280;24369;49.480;8.488;2022-08-21T10:10:19;100422.41;;;36.74;15.72
38614;BME280;24369;49.480;8.488;2022-08-21T10:18:29;100516.13;;;36.86;15.43
38614;BME280;24369;49.480;8.488;2022-08-21T10:24:38;100520.19;;;37.27;15.81
38614;BME280;24369;49.480;8.488;2022-08-21T10:30:08;100583.00;;;36.29;16.51
38614;BME280;24369;49.480;8.488;2022-08-21T10:46:36;100398.13;;;35.34;16.75
38614;BME280;24369;49.480;8.488;2022-08-21T10:54:54;100487.25;;;36.27;16.85
38614;BME280;24369;49.480;8.488;2022-08-21T11:04:57;100386.47;;;35.95;16.07
38614;BME280;24369;49.480;8.488;2022-08-21T11:07:32;100475.66;;;36.92;16.31
38614;BME280;24369;49.480;8.488;2022-08-21T11:10:04;100475.59;;;36.78;15.93
38614;BME280;24369;49.480;8.488;2022-08-21T11:12:42;100477.09;;;36.70;15.92
38614;BME280;24369;49.480;8.488;2022-08-21T11:18:21;100411.06;;;36.43;15.63
38614;BME280;24369;49.480;8.488;2022-08-21T11:27:28;100466.47;;;37.02;15.42
38614;BME280;24369;49.480;8.488;2022-08-21T11:29:59;100447.06;;;36.60;15.51
38614;BME280;24369;49.480;8.488;2022-08-21T11:35:20;100463.50;;;37.31;15.17
38614;BME280;24369;49.480;8.488;2022-08-21T11:41:17;100449.25;;;36.96;15.16
38614;BME280;24369;49.480;8.488;2022-08-21T11:47:11;100308.56;;;36.01;15.61
38614;BME280;24369;49.480;8.488;2022-08-21T11:52:18;100314.22;;;36.23;15.05
38614;BME280;24369;49.480;8.488;2022-08-21T11:57:25;100382.38;;;36.54;15.08
38614;BME280;24369;49.480;8.488;2022-08-21T12:00:06;100444.53;;;36.45;15.48
38614;BME280;24369;49.480;8.488;2022-08-21T12:02:43;100434.72;;;36.39;15.49
38614;BME280;24369;49.480;8.488;2022-08-21T12:05:25;100326.31;;;35.13;16.00
38614;BME280;24369;49.480;8.488;2022-08-21T12:10:18;100370.94;;;34.40;17.53
38614;BME280;24369;49.480;8.488;2022-08-21T12:12:47;100349.03;;;35.13;16.47
38614;BME280;24369;49.480;8.488;2022-08-21T12:18:29;100419.28;;;36.81;15.41
38614;BME280;24369;49.480;8.488;2022-08-21T12:23:43;100370.16;;;35.85;16.22
38614;BME280;24369;49.480;8.488;2022-08-21T12:26:11;100431.03;;;36.67;15.70
38614;BME280;24369;49.480;8.488;2022-08-21T12:30:44;100430.03;;;36.77;15.97
38614;BME280;24369;49.480;8.488;2022-08-21T12:33:28;100377.56;;;36.79;15.53
38614;BME280;24369;49.480;8.488;2022-08-21T12:36:23;100423.25;;;37.07;15.48
38614;BME280;24369;49.480;8.488;2022-08-21T12:38:57;100374.53;;;36.29;16.11
38614;BME280;24369;49.480;8.488;2022-08-21T12:41:47;99853.19;;;33.29;16.17
38614;BME280;24369;49.480;8.488;2022-08-21T12:44:17;100401.63;;;36.87;15.70
38614;BME280;24369;49.480;8.488;2022-08-21T12:46:50;100352.50;;;36.53;15.70
38614;BME280;24369;49.480;8.488;2022-08-21T12:53:42;100398.84;;;37.06;15.37
38614;BME280;24369;49.480;8.488;2022-08-21T12:56:14;100401.59;;;37.20;15.41
38614;BME280;24369;49.480;8.488;2022-08-21T12:58:45;100365.81;;;36.92;15.53
38614;BME280;24369;49.480;8.488;2022-08-21T13:01:24;100396.44;;;37.18;14.99
38614;BME280;24369;49.480;8.488;2022-08-21T13:03:54;100405.19;;;37.20;14.89
38614;BME280;24369;49.480;8.488;2022-08-21T13:06:22;100224.06;;;36.03;14.85
38614;BME280;24369;49.480;8.488;2022-08-21T13:08:52;100394.22;;;37.20;14.62
38614;BME280;24369;49.480;8.488;2022-08-21T13:11:20;100339.69;;;36.94;14.63
38614;BME280;24369;49.480;8.488;2022-08-21T13:13:51;100397.66;;;37.39;14.61
38614;BME280;24369;49.480;8.488;2022-08-21T13:17:23;100398.34;;;36.85;15.00
38614;BME280;24369;49.480;8.488;2022-08-21T13:19:58;100372.09;;;36.79;15.08
38614;BME280;24369;49.480;8.488;2022-08-21T13:22:25;100397.16;;;36.91;15.24
38614;BME280;24369;49.480;8.488;2022-08-21T13:24:50;100202.13;;;35.65;14.88
38614;BME280;24369;49.480;8.488;2022-08-21T13:27:24;100291.16;;;36.43;15.36
38614;BME280;24369;49.480;8.488;2022-08-21T13:32:39;100350.06;;;37.16;14.71
38614;BME280;24369;49.480;8.488;2022-08-21T13:35:15;100339.47;;;37.24;14.61
38614;BME280;24369;49.480;8.488;2022-08-21T13:37:42;100322.94;;;36.96;14.76
38614;BME280;24369;49.480;8.488;2022-08-21T13:42:04;100408.06;;;36.96;14.93
38614;BME280;24369;49.480;8.488;2022-08-21T13:47:02;100389.09;;;36.81;15.20
38614;BME280;24369;49.480;8.488;2022-08-21T13:49:37;100308.75;;;36.89;14.97
38614;BME280;24369;49.480;8.488;2022-08-21T13:52:05;100363.88;;;37.11;15.03
38614;BME280;24369;49.480;8.488;2022-08-21T13:54:43;100370.94;;;36.47;15.42
38614;BME280;24369;49.480;8.488;2022-08-21T13:57:27;100330.38;;;35.87;15.56
38614;BME280;24369;49.480;8.488;2022-08-21T13:59:52;100360.94;;;36.89;15.50
38614;BME280;24369;49.480;8.488;2022-08-21T14:02:20;100339.41;;;36.96;15.08
38614;BME280;24369;49.480;8.488;2022-08-21T14:06:59;100087.56;;;35.48;14.98
38614;BME280;24369;49.480;8.488;2022-08-21T14:09:32;100359.09;;;37.31;14.80
38614;BME280;24369;49.480;8.488;2022-08-21T14:12:02;100188.28;;;36.60;14.49
38614;BME280;24369;49.480;8.488;2022-08-21T14:14:37;100361.88;;;37.58;14.61
38614;BME280;24369;49.480;8.488;2022-08-21T14:17:07;100277.31;;;37.00;14.71
38614;BME280;24369;49.480;8.488;2022-08-21T14:19:38;100352.22;;;37.47;14.55
38614;BME280;24369;49.480;8.488;2022-08-21T14:22:39;100348.91;;;37.17;15.09
38614;BME280;24369;49.480;8.488;2022-08-21T14:25:31;100309.13;;;37.29;14.95
38614;BME280;24369;49.480;8.488;2022-08-21T14:30:31;100273.78;;;36.94;14.74
38614;BME280;24369;49.480;8.488;2022-08-21T14:32:58;100330.31;;;37.56;14.33
38614;BME280;24369;49.480;8.488;2022-08-21T14:35:25;100337.44;;;37.57;14.43
38614;BME280;24369;49.480;8.488;2022-08-21T14:37:51;100398.94;;;37.75;14.45
38614;BME280;24369;49.480;8.488;2022-08-21T14:40:18;100327.25;;;37.71;14.61
38614;BME280;24369;49.480;8.488;2022-08-21T14:42:45;100233.03;;;37.15;14.47
38614;BME280;24369;49.480;8.488;2022-08-21T14:45:16;100317.38;;;37.56;14.28
38614;BME280;24369;49.480;8.488;2022-08-21T14:47:42;100212.59;;;36.94;14.50
38614;BME280;24369;49.480;8.488;2022-08-21T14:50:10;100309.22;;;37.79;14.21
38614;BME280;24369;49.480;8.488;2022-08-21T14:54:27;100243.00;;;37.11;14.62
38614;BME280;24369;49.480;8.488;2022-08-21T14:56:53;100254.50;;;37.55;14.14
38614;BME280;24369;49.480;8.488;2022-08-21T14:59:20;100055.31;;;36.24;14.33
38614;BME280;24369;49.480;8.488;2022-08-21T15:01:45;100207.63;;;37.24;14.33
38614;BME280;24369;49.480;8.488;2022-08-21T15:04:11;99998.00;;;35.95;14.23
38614;BME280;24369;49.480;8.488;2022-08-21T15:06:36;100106.03;;;36.55;14.28
38614;BME280;24369;49.480;8.488;2022-08-21T15:09:02;100312.56;;;37.90;14.04
38614;BME280;24369;49.480;8.488;2022-08-21T15:11:30;100203.03;;;37.05;14.22
38614;BME280;24369;49.480;8.488;2022-08-21T15:13:59;100169.06;;;36.74;13.98
38614;BME280;24369;49.480;8.488;2022-08-21T15:19:03;100248.72;;;37.01;14.41
38614;BME280;24369;49.480;8.488;2022-08-21T15:21:29;100301.19;;;37.69;14.16
38614;BME280;24369;49.480;8.488;2022-08-21T15:23:54;100299.34;;;37.78;14.13
38614;BME280;24369;49.480;8.488;2022-08-21T15:26:22;100309.22;;;37.79;14.19
38614;BME280;24369;49.480;8.488;2022-08-21T15:28:47;100193.59;;;36.98;14.14
38614;BME280;24369;49.480;8.488;2022-08-21T15:31:13;100303.91;;;37.82;14.42
38614;BME280;24369;49.480;8.488;2022-08-21T15:33:38;100053.06;;;36.27;14.22
38614;BME280;24369;49.480;8.488;2022-08-21T15:36:03;100300.97;;;37.93;14.03
38614;BME280;24369;49.480;8.488;2022-08-21T15:38:29;100131.16;;;36.76;14.45
38614;BME280;24369;49.480;8.488;2022-08-21T15:43:00;100084.75;;;36.05;14.23
38614;BME280;24369;49.480;8.488;2022-08-21T15:45:26;100083.25;;;36.27;14.32